createdAt,value
2023-04-02T00:02:18.018Z,7.90
2023-04-02T00:04:44.540Z,7.98
2023-04-02T00:07:11.491Z,7.90
2023-04-02T00:09:38.162Z,8.01
2023-04-02T00:12:04.914Z,7.97
2023-04-02T00:14:31.901Z,7.80
2023-04-02T00:16:58.327Z,7.31
2023-04-02T00:19:24.919Z,7.85
2023-04-02T00:21:51.572Z,7.95
2023-04-02T00:24:20.419Z,8.04
2023-04-02T00:26:47.044Z,7.64
2023-04-02T00:29:13.983Z,7.75
2023-04-02T00:31:40.534Z,7.60
2023-04-02T00:34:07.454Z,7.64
2023-04-02T00:36:34.212Z,7.98
2023-04-02T00:39:00.905Z,7.83
2023-04-02T00:41:27.343Z,7.87
2023-04-02T00:43:53.869Z,7.65
2023-04-02T00:46:20.506Z,7.82
2023-04-02T00:48:46.961Z,7.67
2023-04-02T00:51:13.362Z,7.77
2023-04-02T00:53:39.854Z,7.60
2023-04-02T00:56:06.254Z,7.85
2023-04-02T00:58:33.432Z,7.84
2023-04-02T01:00:59.919Z,7.79
2023-04-02T01:03:26.483Z,7.57
2023-04-02T01:05:53.096Z,7.57
2023-04-02T01:08:19.528Z,7.54
2023-04-02T01:10:45.924Z,7.66
2023-04-02T01:13:12.435Z,7.72
2023-04-02T01:15:39.039Z,7.53
2023-04-02T01:18:05.620Z,7.68
2023-04-02T01:20:32.202Z,7.29
2023-04-02T01:22:58.733Z,7.71
2023-04-02T01:25:25.435Z,7.73
2023-04-02T01:27:52.070Z,7.58
2023-04-02T01:30:18.447Z,7.56
2023-04-02T01:32:44.922Z,7.59
2023-04-02T01:35:11.355Z,7.78
2023-04-02T01:37:37.906Z,7.71
2023-04-02T01:40:04.570Z,7.35
2023-04-02T01:42:31.075Z,7.22
2023-04-02T01:44:57.520Z,7.48
2023-04-02T01:47:23.980Z,7.52
2023-04-02T01:49:50.448Z,7.55
2023-04-02T01:52:17.006Z,7.43
2023-04-02T01:54:43.496Z,7.47
2023-04-02T01:57:09.996Z,7.61
2023-04-02T01:59:36.814Z,7.62
2023-04-02T02:02:03.593Z,7.41
2023-04-02T02:04:31.118Z,7.28
2023-04-02T02:06:58.697Z,7.32
2023-04-02T02:09:25.360Z,7.56
2023-04-02T02:11:51.950Z,7.38
2023-04-02T02:14:18.594Z,7.41
2023-04-02T02:16:45.325Z,7.49
2023-04-02T02:19:11.871Z,7.39
2023-04-02T02:21:38.450Z,7.29
2023-04-02T02:24:04.999Z,7.54
2023-04-02T02:26:31.644Z,7.56
2023-04-02T02:28:58.179Z,7.53
2023-04-02T02:31:24.664Z,7.48
2023-04-02T02:33:51.276Z,7.59
2023-04-02T02:36:17.729Z,7.52
2023-04-02T02:38:44.249Z,7.68
2023-04-02T02:41:11.226Z,7.69
2023-04-02T02:43:40.066Z,7.67
2023-04-02T02:46:06.704Z,7.81
2023-04-02T02:48:33.153Z,7.33
2023-04-02T02:50:59.749Z,7.39
2023-04-02T02:53:26.193Z,7.05
2023-04-02T02:55:52.813Z,7.11
2023-04-02T02:58:19.294Z,7.35
2023-04-02T03:00:45.786Z,7.33
2023-04-02T03:03:12.379Z,7.30
2023-04-02T03:05:39.097Z,7.14
2023-04-02T03:08:05.637Z,7.36
2023-04-02T03:10:32.048Z,7.17
2023-04-02T03:13:00.366Z,7.49
2023-04-02T03:15:26.965Z,7.09
2023-04-02T03:17:53.415Z,7.17
2023-04-02T03:20:19.978Z,7.52
2023-04-02T03:22:46.439Z,7.64
2023-04-02T03:25:12.899Z,7.28
2023-04-02T03:27:39.332Z,7.29
2023-04-02T03:30:05.831Z,7.36
2023-04-02T03:32:32.560Z,7.46
2023-04-02T03:34:59.096Z,7.49
2023-04-02T03:37:25.556Z,7.21
2023-04-02T03:39:52.073Z,7.37
2023-04-02T03:42:18.905Z,7.42
2023-04-02T03:44:45.456Z,7.52
2023-04-02T03:47:12.168Z,7.49
2023-04-02T03:49:38.678Z,7.53
2023-04-02T03:52:05.204Z,7.52
2023-04-02T03:54:31.666Z,7.50
2023-04-02T03:56:58.184Z,7.21
2023-04-02T03:59:24.732Z,7.56
2023-04-02T04:01:51.227Z,7.43
2023-04-02T04:04:18.298Z,7.05
2023-04-02T04:06:45.207Z,7.37
2023-04-02T04:09:11.674Z,7.56
2023-04-02T04:11:38.073Z,7.50
2023-04-02T04:14:04.684Z,7.22
2023-04-02T04:16:31.307Z,7.47
2023-04-02T04:18:58.443Z,7.76
2023-04-02T04:21:24.874Z,7.33
2023-04-02T04:23:51.563Z,7.66
2023-04-02T04:26:17.995Z,7.84
2023-04-02T04:28:44.506Z,7.81
2023-04-02T04:31:11.018Z,7.90
2023-04-02T04:33:37.458Z,7.98
2023-04-02T04:36:04.072Z,8.07
2023-04-02T04:38:30.554Z,8.08
2023-04-02T04:40:56.941Z,7.87
2023-04-02T04:43:23.381Z,7.90
2023-04-02T04:45:50.060Z,7.96
2023-04-02T04:48:16.508Z,7.84
2023-04-02T04:50:42.977Z,7.88
2023-04-02T04:53:09.574Z,8.03
2023-04-02T04:55:36.411Z,7.91
2023-04-02T04:58:03.270Z,7.96
2023-04-02T05:00:30.726Z,7.79
2023-04-02T05:02:57.242Z,7.85
2023-04-02T05:05:23.697Z,7.69
2023-04-02T05:07:50.255Z,7.69
2023-04-02T05:10:17.274Z,7.71
2023-04-02T05:12:43.791Z,7.49
2023-04-02T05:15:10.222Z,7.61
2023-04-02T05:17:36.709Z,7.55
2023-04-02T05:20:03.165Z,7.76
2023-04-02T05:22:29.699Z,7.76
2023-04-02T05:24:56.476Z,7.82
2023-04-02T05:27:23.900Z,7.88
2023-04-02T05:29:52.966Z,7.61
2023-04-02T05:32:19.913Z,7.01
2023-04-02T05:34:46.405Z,7.25
2023-04-02T05:37:13.029Z,6.96
2023-04-02T05:39:39.403Z,7.22
2023-04-02T05:42:06.024Z,7.48
2023-04-02T05:44:32.686Z,7.62
2023-04-02T05:46:59.379Z,7.43
2023-04-02T05:49:25.931Z,7.39
2023-04-02T05:51:52.496Z,7.19
2023-04-02T05:54:19.111Z,7.03
2023-04-02T05:56:45.719Z,7.32
2023-04-02T05:59:12.255Z,7.58
2023-04-02T06:01:38.752Z,7.26
2023-04-02T06:04:05.290Z,7.37
2023-04-02T06:06:31.881Z,7.42
2023-04-02T06:08:58.362Z,7.57
2023-04-02T06:11:24.813Z,7.33
2023-04-02T06:13:51.235Z,7.40
2023-04-02T06:16:17.699Z,7.57
2023-04-02T06:18:44.177Z,7.51
2023-04-02T06:21:10.844Z,7.59
2023-04-02T06:23:37.440Z,7.33
2023-04-02T06:26:03.884Z,7.63
2023-04-02T06:28:30.511Z,7.63
2023-04-02T06:30:56.998Z,7.65
2023-04-02T06:33:23.546Z,7.44
2023-04-02T06:35:49.976Z,7.46
2023-04-02T06:38:16.451Z,7.45
2023-04-02T06:40:42.910Z,7.59
2023-04-02T06:43:09.356Z,7.69
2023-04-02T06:45:36.046Z,7.19
2023-04-02T06:48:02.636Z,7.69
2023-04-02T06:50:29.326Z,7.59
2023-04-02T06:52:55.862Z,7.72
2023-04-02T06:55:24.394Z,7.54
2023-04-02T06:57:50.935Z,7.51
2023-04-02T07:00:17.455Z,7.60
2023-04-02T07:02:43.910Z,7.34
2023-04-02T07:05:10.489Z,7.55
2023-04-02T07:07:37.264Z,7.67
2023-04-02T07:10:04.186Z,7.61
2023-04-02T07:12:30.760Z,7.88
2023-04-02T07:14:57.344Z,7.73
2023-04-02T07:17:23.950Z,7.79
2023-04-02T07:19:50.369Z,7.74
2023-04-02T07:22:16.812Z,7.16
2023-04-02T07:24:44.014Z,7.67
2023-04-02T07:27:10.752Z,7.76
2023-04-02T07:29:37.173Z,7.79
2023-04-02T07:32:03.625Z,8.05
2023-04-02T07:34:30.090Z,8.30
2023-04-02T07:36:56.575Z,8.21
2023-04-02T07:39:23.223Z,8.16
2023-04-02T07:41:49.704Z,8.20
2023-04-02T07:44:16.130Z,8.39
2023-04-02T07:46:42.766Z,8.58
2023-04-02T07:49:09.172Z,8.25
2023-04-02T07:51:35.774Z,8.26
2023-04-02T07:54:02.170Z,8.29
2023-04-02T07:56:28.916Z,8.15
2023-04-02T07:58:55.302Z,8.25
2023-04-02T08:01:21.872Z,8.59
2023-04-02T08:03:50.453Z,8.58
2023-04-02T08:06:19.403Z,8.73
2023-04-02T08:08:45.894Z,8.89
2023-04-02T08:11:12.618Z,8.95
2023-04-02T08:13:39.462Z,9.05
2023-04-02T08:16:06.064Z,9.14
2023-04-02T08:18:32.602Z,9.34
2023-04-02T08:20:59.082Z,9.65
2023-04-02T08:23:25.563Z,9.94
2023-04-02T08:25:54.391Z,10.00
2023-04-02T08:28:20.892Z,9.86
2023-04-02T08:30:47.455Z,9.87
2023-04-02T08:33:14.156Z,9.96
2023-04-02T08:35:40.693Z,9.99
2023-04-02T08:38:07.369Z,9.90
2023-04-02T08:40:33.928Z,9.50
2023-04-02T08:43:00.392Z,9.31
2023-04-02T08:45:26.853Z,9.09
2023-04-02T08:47:53.788Z,8.95
2023-04-02T08:50:20.298Z,8.90
2023-04-02T08:52:46.840Z,8.86
2023-04-02T08:55:13.564Z,9.34
2023-04-02T08:57:40.123Z,9.22
2023-04-02T09:00:07.771Z,9.36
2023-04-02T09:02:34.245Z,8.72
2023-04-02T09:05:00.937Z,8.91
2023-04-02T09:07:27.729Z,8.98
2023-04-02T09:09:54.396Z,8.87
2023-04-02T09:12:20.870Z,8.91
2023-04-02T09:14:47.926Z,8.91
2023-04-02T09:17:15.826Z,8.55
2023-04-02T09:19:42.299Z,8.26
2023-04-02T09:22:08.712Z,8.35
2023-04-02T09:24:35.516Z,8.56
2023-04-02T09:27:01.968Z,8.64
2023-04-02T09:29:28.473Z,8.47
2023-04-02T09:31:55.217Z,8.45
2023-04-02T09:34:21.692Z,8.72
2023-04-02T09:36:48.185Z,8.40
2023-04-02T09:39:14.894Z,8.15
2023-04-02T09:41:41.462Z,8.23
2023-04-02T09:44:07.902Z,8.58
2023-04-02T09:46:34.428Z,8.34
2023-04-02T09:49:01.459Z,8.70
2023-04-02T09:51:28.159Z,8.88
2023-04-02T09:53:55.035Z,8.84
2023-04-02T09:56:21.592Z,9.03
2023-04-02T09:58:48.156Z,8.90
2023-04-02T10:01:14.733Z,9.16
2023-04-02T10:03:41.416Z,9.17
2023-04-02T10:06:07.995Z,8.87
2023-04-02T10:08:34.592Z,8.73
2023-04-02T10:11:01.062Z,9.11
2023-04-02T10:13:28.169Z,9.09
2023-04-02T10:15:54.698Z,8.47
2023-04-02T10:18:21.324Z,8.75
2023-04-02T10:20:51.279Z,9.07
2023-04-02T10:23:18.263Z,9.09
2023-04-02T10:25:44.753Z,8.96
2023-04-02T10:28:11.192Z,8.74
2023-04-02T10:30:38.002Z,8.69
2023-04-02T10:33:04.609Z,9.01
2023-04-02T10:35:31.276Z,9.21
2023-04-02T10:37:57.855Z,9.13
2023-04-02T10:40:24.401Z,8.97
2023-04-02T10:42:51.081Z,9.04
2023-04-02T10:45:18.165Z,9.33
2023-04-02T10:47:44.592Z,9.47
2023-04-02T10:50:11.156Z,9.22
2023-04-02T10:52:38.350Z,8.94
2023-04-02T10:55:04.804Z,8.65
2023-04-02T10:57:31.609Z,9.02
2023-04-02T10:59:58.296Z,9.21
2023-04-02T11:02:24.927Z,9.49
2023-04-02T11:04:51.410Z,9.48
2023-04-02T11:07:19.296Z,9.54
2023-04-02T11:09:45.769Z,9.34
2023-04-02T11:12:13.258Z,9.28
2023-04-02T11:14:39.769Z,9.28
2023-04-02T11:17:06.600Z,9.21
2023-04-02T11:19:33.184Z,8.98
2023-04-02T11:22:01.349Z,9.24
2023-04-02T11:24:30.571Z,9.33
2023-04-02T11:26:57.121Z,9.26
2023-04-02T11:29:23.503Z,8.75
2023-04-02T11:31:50.047Z,8.81
2023-04-02T11:34:16.712Z,8.52
2023-04-02T11:36:43.505Z,8.05
2023-04-02T11:39:17.084Z,7.18
2023-04-02T11:41:44.442Z,6.99
2023-04-02T11:44:11.016Z,6.79
2023-04-02T11:46:38.816Z,6.69
2023-04-02T11:49:05.343Z,7.05
2023-04-02T11:51:31.942Z,7.05
2023-04-02T11:53:58.508Z,7.42
2023-04-02T11:56:25.007Z,7.71
2023-04-02T11:58:52.520Z,7.52
2023-04-02T12:01:19.189Z,6.84
2023-04-02T12:03:45.795Z,7.56
2023-04-02T12:06:12.416Z,7.39
2023-04-02T12:08:47.522Z,7.13
2023-04-02T12:11:23.594Z,6.91
2023-04-02T12:13:50.378Z,7.07
2023-04-02T12:16:17.139Z,7.57
2023-04-02T12:18:43.669Z,7.71
2023-04-02T12:21:10.357Z,7.77
2023-04-02T12:23:37.917Z,7.71
2023-04-02T12:26:04.408Z,7.68
2023-04-02T12:28:30.878Z,7.15
2023-04-02T12:30:57.545Z,7.24
2023-04-02T12:33:24.224Z,6.55
2023-04-02T12:35:51.163Z,6.73
2023-04-02T12:38:17.645Z,7.10
2023-04-02T12:40:44.168Z,6.92
2023-04-02T12:43:10.892Z,7.12
2023-04-02T12:45:37.416Z,7.27
2023-04-02T12:48:04.250Z,7.14
2023-04-02T12:50:31.133Z,7.39
2023-04-02T12:52:58.584Z,7.17
2023-04-02T12:55:25.449Z,6.85
2023-04-02T12:57:51.958Z,6.86
2023-04-02T13:00:19.788Z,6.82
2023-04-02T13:02:46.337Z,7.31
2023-04-02T13:05:13.213Z,7.21
2023-04-02T13:07:39.794Z,6.94
2023-04-02T13:10:08.584Z,7.20
2023-04-02T13:12:35.141Z,7.62
2023-04-02T13:15:01.617Z,7.65
2023-04-02T13:17:28.114Z,7.45
2023-04-02T13:19:54.596Z,7.13
2023-04-02T13:22:22.435Z,6.91
2023-04-02T13:24:49.181Z,6.38
2023-04-02T13:27:17.183Z,6.53
2023-04-02T13:29:44.550Z,7.24
2023-04-02T13:32:11.911Z,7.64
2023-04-02T13:34:41.675Z,8.00
2023-04-02T13:37:08.187Z,8.01
2023-04-02T13:39:34.663Z,7.88
2023-04-02T13:42:01.131Z,7.61
2023-04-02T13:44:28.085Z,7.39
2023-04-02T13:46:57.243Z,7.57
2023-04-02T13:49:23.792Z,8.07
2023-04-02T13:51:50.241Z,8.10
2023-04-02T13:54:17.198Z,8.34
2023-04-02T13:56:43.902Z,7.82
2023-04-02T13:59:10.417Z,7.62
2023-04-02T14:01:39.924Z,7.07
2023-04-02T14:04:07.040Z,6.80
2023-04-02T14:06:33.871Z,7.20
2023-04-02T14:09:00.436Z,7.40
2023-04-02T14:11:26.891Z,7.26
2023-04-02T14:13:53.589Z,7.20
2023-04-02T14:16:20.629Z,7.00
2023-04-02T14:18:47.222Z,6.79
2023-04-02T14:21:13.637Z,6.44
2023-04-02T14:23:40.518Z,6.70
2023-04-02T14:26:07.438Z,6.68
2023-04-02T14:28:34.762Z,6.81
2023-04-02T14:31:01.342Z,6.26
2023-04-02T14:33:29.174Z,6.34
2023-04-02T14:35:56.170Z,6.22
2023-04-02T14:38:22.964Z,6.81
2023-04-02T14:40:49.591Z,6.10
2023-04-02T14:43:16.299Z,5.70
2023-04-02T14:45:42.751Z,6.04
2023-04-02T14:48:09.598Z,5.60
2023-04-02T14:50:36.329Z,6.00
2023-04-02T14:53:03.365Z,6.36
2023-04-02T14:55:33.526Z,6.21
2023-04-02T14:58:00.049Z,6.29
2023-04-02T15:00:27.280Z,6.58
2023-04-02T15:02:53.769Z,6.69
2023-04-02T15:05:20.513Z,6.92
2023-04-02T15:07:47.086Z,7.01
2023-04-02T15:10:13.727Z,6.18
2023-04-02T15:12:40.283Z,6.77
2023-04-02T15:15:06.723Z,6.85
2023-04-02T15:17:33.799Z,7.06
2023-04-02T15:20:01.546Z,7.09
2023-04-02T15:22:28.325Z,6.98
2023-04-02T15:24:55.261Z,6.85
2023-04-02T15:27:24.996Z,6.44
2023-04-02T15:29:53.370Z,5.99
2023-04-02T15:32:19.906Z,6.24
2023-04-02T15:34:46.575Z,5.68
2023-04-02T15:37:13.154Z,6.50
2023-04-02T15:39:40.643Z,6.57
2023-04-02T15:42:07.652Z,6.50
2023-04-02T15:44:34.734Z,6.65
2023-04-02T15:47:01.678Z,6.13
2023-04-02T15:49:28.710Z,6.48
2023-04-02T15:51:55.244Z,5.95
2023-04-02T15:54:23.294Z,6.88
2023-04-02T15:56:50.449Z,6.50
2023-04-02T15:59:16.939Z,6.77
2023-04-02T16:01:43.833Z,6.87
2023-04-02T16:04:11.558Z,6.81
2023-04-02T16:06:38.360Z,7.03
2023-04-02T16:09:06.323Z,6.96
2023-04-02T16:11:33.523Z,6.82
2023-04-02T16:14:02.720Z,6.97
2023-04-02T16:16:30.133Z,7.03
2023-04-02T16:18:56.894Z,6.96
2023-04-02T16:21:26.582Z,6.70
2023-04-02T16:23:54.464Z,6.60
2023-04-02T16:26:21.340Z,6.84
2023-04-02T16:28:48.192Z,6.77
2023-04-02T16:31:15.258Z,6.65
2023-04-02T16:33:42.239Z,6.86
2023-04-02T16:36:09.305Z,6.79
2023-04-02T16:38:36.235Z,6.74
2023-04-02T16:41:08.438Z,6.49
2023-04-02T16:43:36.020Z,6.68
2023-04-02T16:46:04.322Z,7.05
2023-04-02T16:48:31.073Z,6.99
2023-04-02T16:50:58.051Z,5.38
2023-04-02T16:53:26.058Z,6.00
2023-04-02T16:56:03.268Z,5.69
2023-04-02T16:58:30.310Z,5.88
2023-04-02T17:01:04.597Z,5.30
2023-04-02T17:03:31.721Z,5.76
2023-04-02T17:05:58.546Z,5.81
2023-04-02T17:08:25.226Z,6.17
2023-04-02T17:10:52.757Z,5.90
2023-04-02T17:13:19.384Z,5.42
2023-04-02T17:15:46.396Z,5.49
2023-04-02T17:18:12.910Z,4.89
2023-04-02T17:20:40.337Z,4.78
2023-04-02T17:23:07.358Z,4.17
2023-04-02T17:25:34.549Z,5.29
2023-04-02T17:28:02.746Z,5.53
2023-04-02T17:30:31.971Z,5.02
2023-04-02T17:32:59.029Z,4.66
2023-04-02T17:35:26.455Z,4.65
2023-04-02T17:37:53.120Z,4.41
2023-04-02T17:40:20.221Z,4.83
2023-04-02T17:42:47.331Z,4.69
2023-04-02T17:45:14.420Z,4.85
2023-04-02T17:47:42.260Z,3.81
2023-04-02T17:50:09.309Z,3.47
2023-04-02T17:52:38.506Z,3.95
2023-04-02T17:55:05.654Z,3.59
2023-04-02T17:57:32.918Z,4.38
2023-04-02T18:00:00.011Z,4.47
2023-04-02T18:02:27.333Z,4.14
2023-04-02T18:04:54.500Z,3.60
2023-04-02T18:07:21.273Z,3.83
2023-04-02T18:09:49.477Z,4.28
2023-04-02T18:12:16.507Z,3.90
2023-04-02T18:14:43.541Z,3.34
2023-04-02T18:17:10.950Z,2.83
2023-04-02T18:19:38.662Z,3.13
2023-04-02T18:22:08.615Z,3.77
2023-04-02T18:24:35.726Z,3.85
2023-04-02T18:27:02.796Z,3.48
2023-04-02T18:29:32.634Z,3.10
2023-04-02T18:31:59.734Z,2.46
2023-04-02T18:34:31.925Z,3.10
2023-04-02T18:36:59.085Z,3.31
2023-04-02T18:39:27.671Z,3.89
2023-04-02T18:41:54.674Z,4.20
2023-04-02T18:44:21.902Z,4.41
2023-04-02T18:46:49.122Z,3.95
2023-04-02T18:49:19.101Z,3.38
2023-04-02T18:51:47.583Z,3.17
2023-04-02T18:54:15.621Z,2.86
2023-04-02T18:56:42.766Z,2.89
2023-04-02T18:59:10.128Z,2.74
2023-04-02T19:01:36.898Z,3.24
2023-04-02T19:04:05.531Z,3.43
2023-04-02T19:06:32.802Z,2.73
2023-04-02T19:08:59.472Z,2.82
2023-04-02T19:11:27.432Z,3.73
2023-04-02T19:13:55.362Z,3.54
2023-04-02T19:16:24.053Z,3.20
2023-04-02T19:18:50.658Z,3.23
2023-04-02T19:21:18.376Z,3.47
2023-04-02T19:23:47.162Z,3.61
2023-04-02T19:26:14.239Z,3.41
2023-04-02T19:28:41.309Z,3.27
2023-04-02T19:31:09.378Z,3.72
2023-04-02T19:33:36.675Z,2.71
2023-04-02T19:36:03.985Z,3.24
2023-04-02T19:38:32.464Z,3.15
2023-04-02T19:40:59.550Z,3.12
2023-04-02T19:43:31.265Z,3.01
2023-04-02T19:46:05.544Z,3.33
2023-04-02T19:48:32.180Z,2.69
2023-04-02T19:50:58.653Z,3.47
2023-04-02T19:53:25.100Z,3.28
2023-04-02T19:55:52.713Z,2.97
2023-04-02T19:58:20.196Z,3.59
2023-04-02T20:00:47.884Z,3.29
2023-04-02T20:03:15.034Z,3.75
2023-04-02T20:05:44.342Z,3.68
2023-04-02T20:08:11.274Z,3.45
2023-04-02T20:10:38.555Z,3.34
2023-04-02T20:13:06.041Z,3.74
2023-04-02T20:15:33.075Z,3.04
2023-04-02T20:18:00.438Z,3.30
2023-04-02T20:20:27.753Z,3.23
2023-04-02T20:22:54.842Z,3.32
2023-04-02T20:25:21.781Z,2.70
2023-04-02T20:27:48.372Z,2.80
2023-04-02T20:30:14.958Z,3.20
2023-04-02T20:32:42.076Z,3.50
2023-04-02T20:35:09.138Z,2.56
2023-04-02T20:37:36.806Z,3.02
2023-04-02T20:40:03.241Z,2.93
2023-04-02T20:42:29.680Z,2.46
2023-04-02T20:44:57.515Z,2.75
2023-04-02T20:47:24.184Z,2.78
2023-04-02T20:49:50.970Z,3.17
2023-04-02T20:52:17.763Z,3.08
2023-04-02T20:54:44.430Z,3.21
2023-04-02T20:57:10.987Z,2.78
2023-04-02T20:59:37.409Z,3.18
2023-04-02T21:02:03.927Z,3.31
2023-04-02T21:04:30.639Z,3.37
2023-04-02T21:06:59.578Z,3.38
2023-04-02T21:09:25.955Z,3.09
2023-04-02T21:11:52.432Z,3.06
2023-04-02T21:14:19.153Z,3.01
2023-04-02T21:16:45.613Z,2.61
2023-04-02T21:19:12.121Z,2.38
2023-04-02T21:21:38.709Z,2.99
2023-04-02T21:24:05.717Z,2.74
2023-04-02T21:26:33.478Z,2.47
2023-04-02T21:29:01.171Z,2.77
2023-04-02T21:31:28.340Z,2.67
2023-04-02T21:33:55.329Z,3.35
2023-04-02T21:36:22.139Z,3.25
2023-04-02T21:38:48.639Z,3.27
2023-04-02T21:41:15.186Z,2.93
2023-04-02T21:43:43.283Z,2.80
2023-04-02T21:46:09.991Z,2.57
2023-04-02T21:48:39.022Z,2.84
2023-04-02T21:51:05.648Z,2.79
2023-04-02T21:53:32.178Z,3.21
2023-04-02T21:55:59.479Z,2.75
2023-04-02T21:58:27.336Z,3.11
2023-04-02T22:00:53.891Z,2.99
2023-04-02T22:03:30.925Z,3.07
2023-04-02T22:05:58.275Z,3.30
2023-04-02T22:08:24.839Z,3.20
2023-04-02T22:10:51.281Z,3.59
2023-04-02T22:13:17.772Z,2.88
2023-04-02T22:15:44.378Z,2.71
2023-04-02T22:18:10.845Z,2.99
2023-04-02T22:20:38.560Z,3.28
2023-04-02T22:23:06.659Z,3.20
2023-04-02T22:25:33.111Z,2.87
2023-04-02T22:27:59.623Z,3.11
2023-04-02T22:30:26.073Z,3.08
2023-04-02T22:32:52.559Z,3.38
2023-04-02T22:35:19.036Z,3.56
2023-04-02T22:37:46.118Z,3.51
2023-04-02T22:40:12.566Z,2.65
2023-04-02T22:42:38.981Z,2.56
2023-04-02T22:45:05.532Z,3.18
2023-04-02T22:47:32.078Z,3.30
2023-04-02T22:49:58.542Z,3.09
2023-04-02T22:52:25.106Z,2.68
2023-04-02T22:54:51.737Z,2.71
2023-04-02T22:57:18.252Z,2.23
2023-04-02T22:59:44.835Z,3.05
2023-04-02T23:02:11.721Z,2.22
2023-04-02T23:04:38.268Z,2.70
2023-04-02T23:07:04.829Z,3.21
2023-04-02T23:09:31.560Z,2.91
2023-04-02T23:11:58.002Z,2.75
2023-04-02T23:14:24.636Z,2.62
2023-04-02T23:16:51.109Z,2.55
2023-04-02T23:19:17.611Z,2.98
2023-04-02T23:21:44.077Z,2.90
2023-04-02T23:24:10.615Z,3.21
2023-04-02T23:26:37.030Z,2.93
2023-04-02T23:29:03.606Z,2.98
2023-04-02T23:31:30.078Z,3.01
2023-04-02T23:33:56.542Z,2.83
2023-04-02T23:36:23.362Z,2.86
2023-04-02T23:38:49.850Z,2.19
2023-04-02T23:41:16.352Z,2.18
2023-04-02T23:43:43.455Z,2.67
2023-04-02T23:46:09.910Z,2.92
2023-04-02T23:48:36.420Z,3.07
2023-04-02T23:51:02.796Z,2.43
2023-04-02T23:53:29.328Z,2.27
2023-04-02T23:55:55.802Z,2.19
2023-04-02T23:58:22.336Z,1.91
